createdAt,value
2023-03-26T00:02:32.476Z,100925.94
2023-03-26T00:07:35.660Z,100960.44
2023-03-26T00:12:51.867Z,100981.44
2023-03-26T00:18:04.746Z,100980.63
2023-03-26T00:23:10.234Z,100991.56
2023-03-26T00:28:17.312Z,100989.88
2023-03-26T00:33:21.993Z,100988.25
2023-03-26T00:38:37.606Z,100988.34
2023-03-26T01:27:36.540Z,101013.66
2023-03-26T01:33:02.420Z,101020.44
2023-03-26T01:38:24.191Z,101019.38
2023-03-26T01:43:41.017Z,101017.03
2023-03-26T01:49:11.652Z,101026.66
2023-03-26T04:40:10.878Z,101050.69
2023-03-26T04:45:23.744Z,101057.97
2023-03-26T04:50:32.030Z,101049.28
2023-03-26T04:55:44.271Z,101041.59
2023-03-26T07:41:04.112Z,101238.97
2023-03-26T07:47:15.898Z,101238.25
2023-03-26T07:51:49.455Z,101242.50
2023-03-26T07:57:04.243Z,101248.53
2023-03-26T08:02:37.690Z,101260.28
2023-03-26T08:08:19.022Z,101278.13
2023-03-26T08:13:38.112Z,101278.50
2023-03-26T09:20:40.306Z,101349.69
2023-03-26T09:26:00.405Z,101352.59
2023-03-26T09:31:45.469Z,101341.13
2023-03-26T09:37:24.947Z,101347.13
2023-03-26T09:43:07.005Z,101349.44
2023-03-26T10:51:50.171Z,101356.53
2023-03-26T10:56:57.563Z,101361.50
2023-03-26T11:02:30.353Z,101364.16
2023-03-26T11:07:49.768Z,101363.06
2023-03-26T12:24:31.922Z,101331.91
2023-03-26T13:28:27.638Z,101305.91
2023-03-26T13:33:43.369Z,101296.66
2023-03-26T13:39:04.196Z,101291.91
2023-03-26T13:44:21.093Z,101283.63
2023-03-26T13:49:41.242Z,101278.81
2023-03-26T13:54:50.976Z,101276.13
2023-03-26T14:00:02.238Z,101280.66
2023-03-26T14:05:16.778Z,101278.63
2023-03-26T14:10:32.968Z,101268.19
2023-03-26T14:15:43.711Z,101265.81
2023-03-26T14:21:14.280Z,101259.13
2023-03-26T14:27:02.999Z,101249.59
2023-03-26T14:32:32.001Z,101245.28
2023-03-26T14:37:53.781Z,101239.50
2023-03-26T14:43:21.373Z,101229.75
2023-03-26T14:48:59.075Z,101234.16
2023-03-26T14:54:06.960Z,101230.44
2023-03-26T15:00:02.263Z,101223.22
2023-03-26T15:05:49.661Z,101218.84
2023-03-26T15:11:20.608Z,101207.59
2023-03-26T15:16:52.078Z,101220.63
2023-03-26T15:22:31.704Z,101214.66
2023-03-26T15:28:22.934Z,101207.59
2023-03-26T16:36:43.775Z,101195.00
2023-03-26T16:42:11.513Z,101197.19
2023-03-26T16:47:24.165Z,101196.22
2023-03-26T16:52:48.143Z,101202.00
2023-03-26T16:57:57.608Z,101197.22
2023-03-26T17:03:26.289Z,101203.38
2023-03-26T17:09:48.113Z,101193.47
2023-03-26T17:46:03.215Z,101200.44
2023-03-26T17:51:23.778Z,101205.16
2023-03-26T17:56:46.457Z,101202.00
2023-03-26T18:02:07.909Z,101199.72
2023-03-26T18:07:36.106Z,101201.44
2023-03-26T18:13:18.844Z,101190.38
2023-03-26T18:18:31.344Z,101191.59
2023-03-26T18:23:45.247Z,101185.75
2023-03-26T18:28:53.067Z,101185.72
2023-03-26T18:34:08.778Z,101195.06
2023-03-26T18:39:13.918Z,101195.63
2023-03-26T18:44:20.866Z,101193.84
2023-03-26T18:49:34.817Z,101192.97
2023-03-26T18:54:39.912Z,101200.41
2023-03-26T18:59:45.672Z,101204.56
2023-03-26T19:04:55.549Z,101213.06
2023-03-26T19:10:14.121Z,101209.88
2023-03-26T19:15:20.010Z,101218.31
2023-03-26T19:20:28.050Z,101219.38
2023-03-26T19:25:45.345Z,101230.84
2023-03-26T19:30:53.060Z,101239.41
2023-03-26T19:36:23.342Z,101245.69
2023-03-26T19:41:33.736Z,101253.88
2023-03-26T19:46:54.480Z,101262.88
2023-03-26T19:52:22.025Z,101266.56
2023-03-26T19:57:47.609Z,101268.34
2023-03-26T20:02:52.831Z,101277.25
2023-03-26T20:08:00.371Z,101278.44
2023-03-26T20:13:07.449Z,101291.44
2023-03-26T20:18:13.717Z,101298.63
2023-03-26T20:23:20.087Z,101306.69
2023-03-26T20:28:30.455Z,101313.91
2023-03-26T20:33:39.267Z,101318.03
2023-03-26T20:38:46.655Z,101314.28
2023-03-26T20:44:02.052Z,101318.09
2023-03-26T20:49:11.111Z,101328.31
2023-03-26T20:54:26.096Z,101329.41
2023-03-26T20:59:31.189Z,101332.84
2023-03-26T21:44:19.430Z,101341.53
2023-03-26T21:49:25.891Z,101344.28
2023-03-26T21:54:32.588Z,101343.28
2023-03-26T21:59:54.222Z,101340.34
2023-03-26T22:05:16.704Z,101339.16
2023-03-26T22:10:20.084Z,101336.31
2023-03-26T22:15:26.843Z,101328.94
2023-03-26T22:20:35.316Z,101323.78
2023-03-26T22:25:44.461Z,101322.28
2023-03-26T22:30:53.674Z,101311.31
2023-03-26T22:36:23.477Z,101310.50
2023-03-26T23:20:15.027Z,101309.06
